createdAt,value
2017-08-23T00:00:03.376Z,0
2017-08-23T00:05:02.818Z,0
2017-08-23T00:10:03.435Z,0
2017-08-23T00:15:02.860Z,0
2017-08-23T00:20:03.326Z,0
2017-08-23T00:25:02.902Z,0
2017-08-23T00:30:03.473Z,0
2017-08-23T00:35:02.965Z,0
2017-08-23T00:40:02.650Z,0
2017-08-23T00:45:03.226Z,0
2017-08-23T00:50:02.672Z,0
2017-08-23T00:55:03.110Z,0
2017-08-23T01:00:02.698Z,0
2017-08-23T01:05:03.103Z,0
2017-08-23T01:10:02.755Z,0
2017-08-23T01:15:03.344Z,0
2017-08-23T01:20:02.785Z,0
2017-08-23T01:25:03.232Z,0
2017-08-23T01:30:02.863Z,0
2017-08-23T01:35:03.390Z,0
2017-08-23T01:40:02.936Z,0
2017-08-23T01:45:03.358Z,0
2017-08-23T01:50:02.765Z,0
2017-08-23T01:55:03.254Z,0
2017-08-23T02:00:02.721Z,0
2017-08-23T02:05:03.273Z,0
2017-08-23T02:10:02.889Z,0
2017-08-23T02:15:03.329Z,0
2017-08-23T02:20:02.776Z,0
2017-08-23T02:25:03.364Z,0
2017-08-23T02:30:02.925Z,0
2017-08-23T02:35:03.409Z,0
2017-08-23T02:40:02.950Z,0
2017-08-23T02:45:03.410Z,0
2017-08-23T02:50:02.895Z,0
2017-08-23T02:55:03.510Z,0
2017-08-23T03:00:03.139Z,0
2017-08-23T03:05:02.746Z,0
2017-08-23T03:10:03.253Z,0
2017-08-23T03:15:02.827Z,0
2017-08-23T03:20:03.436Z,0
2017-08-23T03:25:02.824Z,0
2017-08-23T03:30:03.260Z,0
2017-08-23T03:35:02.849Z,0
2017-08-23T03:40:03.377Z,0
2017-08-23T03:45:02.918Z,0
2017-08-23T03:50:03.386Z,0
2017-08-23T03:55:02.829Z,0
2017-08-23T04:00:03.361Z,0
2017-08-23T04:05:02.849Z,2
2017-08-23T04:10:03.452Z,3
2017-08-23T04:15:03.027Z,2
2017-08-23T04:20:03.483Z,3
2017-08-23T04:25:03.005Z,3
2017-08-23T04:30:02.611Z,3
2017-08-23T04:35:03.098Z,1
2017-08-23T04:40:02.747Z,0
2017-08-23T04:45:03.144Z,0
2017-08-23T04:55:03.223Z,4
2017-08-23T05:00:02.807Z,2
2017-08-23T05:05:03.371Z,2
2017-08-23T05:10:02.846Z,3
2017-08-23T05:15:03.283Z,3
2017-08-23T05:20:02.876Z,3
2017-08-23T05:25:03.313Z,2
2017-08-23T05:30:02.732Z,3
2017-08-23T05:35:03.235Z,2
2017-08-23T05:40:02.792Z,1
2017-08-23T05:45:02.669Z,3
2017-08-23T05:50:03.145Z,2
2017-08-23T05:55:02.729Z,3
2017-08-23T06:00:03.072Z,2
2017-08-23T06:05:02.591Z,3
2017-08-23T06:10:03.042Z,2
2017-08-23T06:15:02.593Z,1
2017-08-23T06:20:03.222Z,1
2017-08-23T06:25:02.664Z,2
2017-08-23T06:30:03.221Z,2
2017-08-23T06:35:02.771Z,3
2017-08-23T06:40:03.419Z,3
2017-08-23T06:45:02.969Z,0
2017-08-23T06:50:03.571Z,2
2017-08-23T06:55:03.110Z,0
2017-08-23T07:00:03.531Z,1
2017-08-23T07:05:03.006Z,4
2017-08-23T07:10:03.491Z,2
2017-08-23T07:15:02.932Z,2
2017-08-23T07:20:03.407Z,1
2017-08-23T07:25:02.885Z,2
2017-08-23T07:30:03.461Z,0
2017-08-23T07:35:03.047Z,0
2017-08-23T07:40:03.539Z,0
2017-08-23T07:45:03.009Z,2
2017-08-23T07:50:03.524Z,2
2017-08-23T07:55:03.107Z,0
2017-08-23T08:00:02.651Z,2
2017-08-23T08:15:03.296Z,0
2017-08-23T08:20:02.732Z,1
2017-08-23T08:25:03.179Z,1
2017-08-23T08:30:02.643Z,0
2017-08-23T08:35:03.123Z,0
2017-08-23T08:40:02.742Z,0
2017-08-23T08:45:03.264Z,0
2017-08-23T08:50:02.916Z,0
2017-08-23T08:55:03.522Z,1
2017-08-23T09:00:02.897Z,0
2017-08-23T09:05:03.526Z,2
2017-08-23T09:10:03.128Z,0
2017-08-23T09:15:03.547Z,0
2017-08-23T09:20:03.126Z,0
2017-08-23T09:25:02.689Z,0
2017-08-23T09:30:03.259Z,0
2017-08-23T09:35:02.867Z,0
2017-08-23T09:40:03.457Z,0
2017-08-23T09:45:03.075Z,2
2017-08-23T09:50:02.616Z,2
2017-08-23T09:55:03.220Z,0
2017-08-23T10:00:02.807Z,2
2017-08-23T10:05:03.258Z,0
2017-08-23T10:10:02.877Z,0
2017-08-23T10:15:03.327Z,0
2017-08-23T10:20:02.712Z,0
2017-08-23T10:25:03.205Z,0
2017-08-23T10:30:02.794Z,0
2017-08-23T10:35:03.341Z,0
2017-08-23T10:40:02.911Z,0
2017-08-23T10:45:03.445Z,0
2017-08-23T10:50:03.001Z,0
2017-08-23T10:55:03.596Z,2
2017-08-23T11:00:03.173Z,0
2017-08-23T11:05:02.752Z,0
2017-08-23T11:10:03.355Z,1
2017-08-23T11:15:02.987Z,0
2017-08-23T11:20:03.452Z,0
2017-08-23T11:25:02.928Z,1
2017-08-23T11:30:03.411Z,2
2017-08-23T11:35:02.885Z,0
2017-08-23T11:40:03.544Z,0
2017-08-23T11:45:03.311Z,0
2017-08-23T11:50:02.845Z,0
2017-08-23T11:55:03.300Z,0
2017-08-23T12:00:02.809Z,0
2017-08-23T12:05:03.396Z,0
2017-08-23T12:10:02.886Z,0
2017-08-23T12:15:03.315Z,1
2017-08-23T12:20:02.873Z,0
2017-08-23T12:25:03.433Z,0
2017-08-23T12:30:02.983Z,4
2017-08-23T12:35:02.567Z,2
2017-08-23T12:40:03.157Z,0
2017-08-23T12:45:02.691Z,2
2017-08-23T12:50:03.152Z,2
2017-08-23T12:55:02.722Z,4
2017-08-23T13:00:03.267Z,0
2017-08-23T13:05:02.716Z,2
2017-08-23T13:10:03.211Z,0
2017-08-23T13:15:02.627Z,0
2017-08-23T13:20:03.315Z,2
2017-08-23T13:25:02.812Z,1
2017-08-23T13:30:03.242Z,0
2017-08-23T13:35:02.668Z,0
2017-08-23T13:40:03.315Z,0
2017-08-23T13:45:02.717Z,3
2017-08-23T13:50:03.260Z,0
2017-08-23T13:55:02.648Z,1
2017-08-23T14:00:03.234Z,1
2017-08-23T14:05:02.836Z,7
2017-08-23T14:10:03.434Z,4
2017-08-23T14:15:02.849Z,2
2017-08-23T14:20:03.347Z,8
2017-08-23T14:25:02.769Z,3
2017-08-23T14:30:03.270Z,3
2017-08-23T14:35:02.705Z,0
2017-08-23T14:40:03.188Z,2
2017-08-23T14:45:02.591Z,3
2017-08-23T14:50:03.237Z,3
2017-08-23T14:55:02.790Z,0
2017-08-23T15:00:03.382Z,0
2017-08-23T15:05:02.820Z,0
2017-08-23T15:10:03.331Z,0
2017-08-23T15:15:02.779Z,0
2017-08-23T15:20:03.202Z,0
2017-08-23T15:25:02.730Z,0
2017-08-23T15:30:03.123Z,0
2017-08-23T15:35:03.578Z,0
2017-08-23T15:40:03.045Z,0
2017-08-23T15:45:02.808Z,0
2017-08-23T15:50:03.268Z,0
2017-08-23T16:00:03.252Z,0
2017-08-23T16:05:02.668Z,0
2017-08-23T16:10:03.198Z,0
2017-08-23T16:15:02.730Z,0
2017-08-23T16:20:03.245Z,0
2017-08-23T16:25:02.713Z,0
2017-08-23T16:30:03.120Z,0
2017-08-23T16:35:02.695Z,0
2017-08-23T16:40:03.170Z,0
2017-08-23T16:45:02.746Z,0
2017-08-23T16:50:03.347Z,0
2017-08-23T16:55:02.896Z,0
2017-08-23T17:00:03.356Z,0
2017-08-23T17:05:02.965Z,0
2017-08-23T17:10:03.482Z,0
2017-08-23T17:15:02.897Z,0
2017-08-23T17:20:03.499Z,0
2017-08-23T17:25:03.034Z,0
2017-08-23T17:30:02.581Z,0
2017-08-23T17:35:03.069Z,1
2017-08-23T17:40:02.620Z,0
2017-08-23T17:45:03.132Z,0
2017-08-23T17:50:02.650Z,0
2017-08-23T17:55:03.229Z,0
2017-08-23T18:00:02.813Z,0
2017-08-23T18:05:03.496Z,0
2017-08-23T18:10:02.985Z,0
2017-08-23T18:15:03.539Z,0
2017-08-23T18:20:03.001Z,0
2017-08-23T18:25:02.616Z,0
2017-08-23T18:30:03.352Z,0
2017-08-23T18:35:02.801Z,0
2017-08-23T18:40:03.402Z,0
2017-08-23T18:45:03.000Z,0
2017-08-23T18:50:02.607Z,0
2017-08-23T18:55:03.163Z,0
2017-08-23T19:00:02.644Z,0
2017-08-23T19:05:03.335Z,0
2017-08-23T19:10:02.750Z,0
2017-08-23T19:15:03.314Z,0
2017-08-23T19:20:02.714Z,0
2017-08-23T19:25:03.291Z,2
2017-08-23T19:30:02.773Z,0
2017-08-23T19:35:03.307Z,0
2017-08-23T19:40:02.856Z,0
2017-08-23T19:45:03.426Z,0
2017-08-23T19:50:02.988Z,0
2017-08-23T19:55:03.434Z,0
2017-08-23T20:00:02.971Z,0
2017-08-23T20:05:03.493Z,0
2017-08-23T20:10:03.164Z,0
2017-08-23T20:15:02.713Z,0
2017-08-23T20:20:03.188Z,0
2017-08-23T20:25:02.762Z,0
2017-08-23T20:30:03.244Z,0
2017-08-23T20:35:02.711Z,0
2017-08-23T20:40:03.157Z,0
2017-08-23T20:45:02.775Z,0
2017-08-23T20:50:03.315Z,0
2017-08-23T20:55:02.847Z,0
2017-08-23T21:00:03.468Z,0
2017-08-23T21:05:02.965Z,0
2017-08-23T21:10:03.532Z,0
2017-08-23T21:15:03.084Z,0
2017-08-23T21:20:02.628Z,0
2017-08-23T21:25:03.205Z,0
2017-08-23T21:30:02.837Z,0
2017-08-23T21:35:03.305Z,0
2017-08-23T21:40:02.893Z,0
2017-08-23T21:45:03.413Z,0
2017-08-23T21:50:02.881Z,0
2017-08-23T21:55:03.393Z,0
2017-08-23T22:00:02.924Z,0
2017-08-23T22:05:03.496Z,1
2017-08-23T22:10:03.097Z,6
2017-08-23T22:15:02.690Z,2
2017-08-23T22:20:03.134Z,3
2017-08-23T22:25:02.596Z,6
2017-08-23T22:30:03.050Z,5
2017-08-23T22:35:03.458Z,11
2017-08-23T22:40:03.037Z,6
2017-08-23T22:45:03.561Z,7
2017-08-23T22:50:02.944Z,5
2017-08-23T22:55:03.318Z,8
2017-08-23T23:00:03.071Z,3
2017-08-23T23:05:03.178Z,5
2017-08-23T23:10:02.793Z,3
2017-08-23T23:15:03.347Z,6
2017-08-23T23:20:02.974Z,7
2017-08-23T23:25:03.491Z,4
2017-08-23T23:30:03.017Z,7
2017-08-23T23:35:03.535Z,7
2017-08-23T23:40:03.014Z,6
2017-08-23T23:45:03.394Z,5
2017-08-23T23:50:02.911Z,11
2017-08-23T23:55:03.390Z,7
